Impacts METAR Board INFO
IDs:

KCLT - Charlotte/Douglas In, NC, US

Updated at: 1850 UTC 13 Dec 2017
Potential Impact None Slight Moderate High
Time13/06Z 13/07Z 13/08Z 13/09Z 13/10Z 13/11Z 13/12Z 13/13Z 13/14Z 13/15Z 13/16Z 13/17Z 13/18Z
VIS10 10 10 10 10 10 10 10 10 10 10 10 10
CIG-- -- -- -- -- -- -- -- -- -- -- -- --
CoverCLRCLRCLRCLRCLRCLRCLRCLRFEWFEWFEWFEWFEW
FltCatVFRVFRVFRVFRVFRVFRVFRVFRVFRVFRVFRVFRVFR
WX--------------------------
WDir300270350310310000250240190190220
WSpd7 3 3 7 5 0 0 0 4 4 10 7 9
WGst-- -- -- -- -- -- -- -- -- -- -- -- --
Raw hourly METARs
KCLT 130552Z 30007KT 10SM CLR 00/M16 A2986 RMK AO2 SLP112 T00001161 10050 20000 50005
KCLT 130652Z 27003KT 10SM CLR M01/M16 A2988 RMK AO2 SLP120 T10061161
KCLT 130752Z 35003KT 10SM CLR M02/M16 A2990 RMK AO2 SLP127 T10171156
KCLT 130852Z 31007KT 10SM CLR M02/M15 A2991 RMK AO2 SLP130 T10221150 51016
KCLT 130952Z 31005KT 10SM CLR M02/M16 A2992 RMK AO2 SLP133 T10221161
KCLT 131052Z 00000KT 10SM CLR M02/M15 A2993 RMK AO2 SLP140 T10221150
KCLT 131152Z 00000KT 10SM CLR M02/M14 A2997 RMK AO2 SLP151 T10221144 10000 21044 53019
KCLT 131252Z 00000KT 10SM CLR M03/M12 A2998 RMK AO2 SLP158 T10281122
KCLT 131352Z 25004KT 10SM FEW250 01/M13 A3000 RMK AO2 SLP161 T00061133
KCLT 131452Z 24004KT 10SM FEW250 02/M14 A3000 RMK AO2 SLP164 T00221139 51013
KCLT 131552Z 19010KT 10SM FEW250 04/M14 A2999 RMK AO2 SLP160 T00391139
KCLT 131652Z 19007KT 10SM FEW250 05/M13 A2997 RMK AO2 SLP150 T00501133
KCLT 131752Z 22009KT 10SM FEW250 06/M13 A2992 RMK AO2 SLP136 T00611128 10067 21050 58026